sensor_id;sensor_type;location;lat;lon;timestamp;pressure;altitude;pressure_sealevel;temperature;humidity
70009;BME280;59542;37.950;-122.338;2022-08-03T00:00:42;101348.44;;;22.78;53.53
70009;BME280;59542;37.950;-122.338;2022-08-03T00:03:08;101353.59;;;22.84;52.83
70009;BME280;59542;37.950;-122.338;2022-08-03T00:05:35;101358.53;;;22.67;53.78
70009;BME280;59542;37.950;-122.338;2022-08-03T00:08:01;101350.63;;;22.35;54.42
70009;BME280;59542;37.950;-122.338;2022-08-03T00:10:27;101342.97;;;22.62;53.83
70009;BME280;59542;37.950;-122.338;2022-08-03T00:12:53;101349.00;;;22.39;54.06
70009;BME280;59542;37.950;-122.338;2022-08-03T00:15:20;101344.06;;;22.61;53.56
70009;BME280;59542;37.950;-122.338;2022-08-03T00:17:46;101346.81;;;22.36;54.64
70009;BME280;59542;37.950;-122.338;2022-08-03T00:20:12;101337.53;;;22.42;54.35
70009;BME280;59542;37.950;-122.338;2022-08-03T00:22:38;101342.69;;;22.59;53.61
70009;BME280;59542;37.950;-122.338;2022-08-03T00:25:05;101337.81;;;22.51;54.13
70009;BME280;59542;37.950;-122.338;2022-08-03T00:27:31;101332.59;;;22.64;53.31
70009;BME280;59542;37.950;-122.338;2022-08-03T00:29:58;101336.72;;;22.21;54.48
70009;BME280;59542;37.950;-122.338;2022-08-03T00:32:24;101331.25;;;22.11;54.28
70009;BME280;59542;37.950;-122.338;2022-08-03T00:34:51;101328.53;;;22.11;54.58
70009;BME280;59542;37.950;-122.338;2022-08-03T00:37:17;101323.84;;;22.01;55.72
70009;BME280;59542;37.950;-122.338;2022-08-03T00:39:43;101335.03;;;22.05;55.32
70009;BME280;59542;37.950;-122.338;2022-08-03T00:42:12;101327.44;;;22.17;54.86
70009;BME280;59542;37.950;-122.338;2022-08-03T00:44:42;101324.94;;;21.95;55.66
70009;BME280;59542;37.950;-122.338;2022-08-03T00:49:36;101327.13;;;22.08;55.20
70009;BME280;59542;37.950;-122.338;2022-08-03T00:52:02;101331.72;;;21.93;55.80
70009;BME280;59542;37.950;-122.338;2022-08-03T00:54:29;101329.25;;;21.81;56.57
70009;BME280;59542;37.950;-122.338;2022-08-03T00:56:55;101335.75;;;21.70;56.76
70009;BME280;59542;37.950;-122.338;2022-08-03T00:59:22;101330.47;;;21.38;57.67
70009;BME280;59542;37.950;-122.338;2022-08-03T01:01:48;101322.84;;;21.34;58.48
70009;BME280;59542;37.950;-122.338;2022-08-03T01:04:14;101338.56;;;21.22;58.56
70009;BME280;59542;37.950;-122.338;2022-08-03T01:07:15;101332.47;;;21.00;59.18
70009;BME280;59542;37.950;-122.338;2022-08-03T01:16:17;101334.63;;;21.03;58.96
70009;BME280;59542;37.950;-122.338;2022-08-03T01:28:14;101315.91;;;20.37;61.01
70009;BME280;59542;37.950;-122.338;2022-08-03T01:30:45;101314.28;;;20.36;61.50
70009;BME280;59542;37.950;-122.338;2022-08-03T01:33:21;101313.09;;;20.49;61.50
70009;BME280;59542;37.950;-122.338;2022-08-03T01:35:59;101321.47;;;20.47;61.30
70009;BME280;59542;37.950;-122.338;2022-08-03T01:38:35;101327.03;;;20.30;61.42
70009;BME280;59542;37.950;-122.338;2022-08-03T01:41:16;101331.97;;;20.34;60.99
70009;BME280;59542;37.950;-122.338;2022-08-03T01:43:45;101328.16;;;20.35;61.50
70009;BME280;59542;37.950;-122.338;2022-08-03T01:46:16;101321.44;;;20.15;61.49
70009;BME280;59542;37.950;-122.338;2022-08-03T01:48:44;101329.31;;;20.12;61.54
70009;BME280;59542;37.950;-122.338;2022-08-03T01:51:14;101333.00;;;20.27;61.84
70009;BME280;59542;37.950;-122.338;2022-08-03T01:53:41;101337.84;;;19.93;62.22
70009;BME280;59542;37.950;-122.338;2022-08-03T01:56:08;101331.66;;;20.03;62.27
70009;BME280;59542;37.950;-122.338;2022-08-03T01:58:36;101340.28;;;19.68;62.63
70009;BME280;59542;37.950;-122.338;2022-08-03T02:01:05;101344.06;;;19.67;63.16
70009;BME280;59542;37.950;-122.338;2022-08-03T02:03:35;101331.16;;;19.79;62.83
70009;BME280;59542;37.950;-122.338;2022-08-03T02:06:04;101331.25;;;19.62;63.01
70009;BME280;59542;37.950;-122.338;2022-08-03T02:08:32;101336.84;;;19.56;63.34
70009;BME280;59542;37.950;-122.338;2022-08-03T02:10:59;101339.06;;;19.59;63.54
70009;BME280;59542;37.950;-122.338;2022-08-03T02:13:28;101335.38;;;19.70;62.86
70009;BME280;59542;37.950;-122.338;2022-08-03T02:15:56;101328.50;;;19.84;62.07
70009;BME280;59542;37.950;-122.338;2022-08-03T02:18:23;101331.75;;;20.13;61.43
70009;BME280;59542;37.950;-122.338;2022-08-03T02:20:51;101319.16;;;20.02;61.58
70009;BME280;59542;37.950;-122.338;2022-08-03T02:23:17;101322.78;;;19.86;62.32
70009;BME280;59542;37.950;-122.338;2022-08-03T02:25:47;101337.88;;;19.98;62.11
70009;BME280;59542;37.950;-122.338;2022-08-03T02:28:28;101338.38;;;19.95;62.48
70009;BME280;59542;37.950;-122.338;2022-08-03T02:30:57;101338.13;;;19.97;62.46
70009;BME280;59542;37.950;-122.338;2022-08-03T02:33:31;101325.56;;;19.91;62.42
70009;BME280;59542;37.950;-122.338;2022-08-03T02:35:59;101336.88;;;20.04;61.71
70009;BME280;59542;37.950;-122.338;2022-08-03T02:38:31;101338.44;;;19.73;62.96
70009;BME280;59542;37.950;-122.338;2022-08-03T02:41:00;101333.41;;;19.60;63.29
70009;BME280;59542;37.950;-122.338;2022-08-03T02:43:30;101342.69;;;19.25;64.42
70009;BME280;59542;37.950;-122.338;2022-08-03T02:45:57;101345.97;;;19.06;65.59
70009;BME280;59542;37.950;-122.338;2022-08-03T02:48:27;101345.19;;;18.55;67.69
70009;BME280;59542;37.950;-122.338;2022-08-03T02:50:56;101336.72;;;18.68;67.30
70009;BME280;59542;37.950;-122.338;2022-08-03T02:53:23;101340.16;;;18.63;68.17
70009;BME280;59542;37.950;-122.338;2022-08-03T02:55:51;101334.09;;;18.56;67.96
70009;BME280;59542;37.950;-122.338;2022-08-03T02:58:19;101347.56;;;18.51;68.11
70009;BME280;59542;37.950;-122.338;2022-08-03T03:00:47;101339.53;;;17.94;70.38
70009;BME280;59542;37.950;-122.338;2022-08-03T03:03:16;101345.97;;;17.93;70.42
70009;BME280;59542;37.950;-122.338;2022-08-03T03:05:44;101356.97;;;17.86;70.70
70009;BME280;59542;37.950;-122.338;2022-08-03T03:08:16;101347.59;;;17.77;71.47
70009;BME280;59542;37.950;-122.338;2022-08-03T03:10:43;101347.00;;;17.75;71.01
70009;BME280;59542;37.950;-122.338;2022-08-03T03:13:12;101351.38;;;17.64;71.93
70009;BME280;59542;37.950;-122.338;2022-08-03T03:15:38;101355.09;;;17.35;72.83
70009;BME280;59542;37.950;-122.338;2022-08-03T03:18:06;101350.03;;;17.38;72.73
70009;BME280;59542;37.950;-122.338;2022-08-03T03:20:35;101355.47;;;17.38;72.84
70009;BME280;59542;37.950;-122.338;2022-08-03T03:23:02;101360.94;;;17.55;72.33
70009;BME280;59542;37.950;-122.338;2022-08-03T03:25:31;101352.38;;;17.47;72.76
70009;BME280;59542;37.950;-122.338;2022-08-03T03:27:59;101351.81;;;17.33;73.38
70009;BME280;59542;37.950;-122.338;2022-08-03T03:30:26;101357.25;;;17.09;74.63
70009;BME280;59542;37.950;-122.338;2022-08-03T03:32:53;101363.47;;;16.98;75.11
70009;BME280;59542;37.950;-122.338;2022-08-03T03:35:20;101373.16;;;16.94;75.72
70009;BME280;59542;37.950;-122.338;2022-08-03T03:37:46;101373.22;;;16.87;75.63
70009;BME280;59542;37.950;-122.338;2022-08-03T03:40:13;101375.81;;;16.71;76.42
70009;BME280;59542;37.950;-122.338;2022-08-03T03:42:39;101383.47;;;16.74;76.06
70009;BME280;59542;37.950;-122.338;2022-08-03T03:45:07;101382.25;;;16.70;76.21
70009;BME280;59542;37.950;-122.338;2022-08-03T03:47:34;101382.50;;;16.68;75.97
70009;BME280;59542;37.950;-122.338;2022-08-03T03:50:04;101387.63;;;16.58;76.64
70009;BME280;59542;37.950;-122.338;2022-08-03T03:52:32;101385.06;;;16.63;76.28
70009;BME280;59542;37.950;-122.338;2022-08-03T03:54:58;101385.28;;;16.50;76.81
70009;BME280;59542;37.950;-122.338;2022-08-03T03:57:24;101384.75;;;16.29;77.86
70009;BME280;59542;37.950;-122.338;2022-08-03T03:59:50;101375.50;;;16.49;76.91
70009;BME280;59542;37.950;-122.338;2022-08-03T04:02:17;101376.44;;;16.43;76.76
70009;BME280;59542;37.950;-122.338;2022-08-03T04:04:43;101374.56;;;16.43;76.85
70009;BME280;59542;37.950;-122.338;2022-08-03T04:07:34;101367.41;;;16.49;76.77
70009;BME280;59542;37.950;-122.338;2022-08-03T04:10:24;101364.13;;;16.47;76.53
70009;BME280;59542;37.950;-122.338;2022-08-03T04:13:13;101366.44;;;16.43;76.77
70009;BME280;59542;37.950;-122.338;2022-08-03T04:15:42;101375.31;;;16.50;76.38
70009;BME280;59542;37.950;-122.338;2022-08-03T04:18:11;101376.44;;;16.43;76.65
70009;BME280;59542;37.950;-122.338;2022-08-03T04:20:39;101382.91;;;16.53;76.52
70009;BME280;59542;37.950;-122.338;2022-08-03T04:23:11;101381.28;;;16.52;76.65
70009;BME280;59542;37.950;-122.338;2022-08-03T04:25:39;101371.97;;;16.48;76.61
70009;BME280;59542;37.950;-122.338;2022-08-03T04:28:07;101371.50;;;16.40;77.08
70009;BME280;59542;37.950;-122.338;2022-08-03T04:30:36;101368.25;;;16.49;76.56
70009;BME280;59542;37.950;-122.338;2022-08-03T04:33:04;101375.84;;;16.29;77.22
70009;BME280;59542;37.950;-122.338;2022-08-03T04:35:32;101385.25;;;16.38;77.28
70009;BME280;59542;37.950;-122.338;2022-08-03T04:38:02;101396.75;;;16.33;77.54
70009;BME280;59542;37.950;-122.338;2022-08-03T04:40:36;101395.22;;;16.37;77.07
70009;BME280;59542;37.950;-122.338;2022-08-03T04:43:05;101394.31;;;16.44;76.88
70009;BME280;59542;37.950;-122.338;2022-08-03T04:45:33;101384.47;;;16.49;76.17
70009;BME280;59542;37.950;-122.338;2022-08-03T04:48:00;101394.09;;;16.45;76.01
70009;BME280;59542;37.950;-122.338;2022-08-03T04:50:27;101400.63;;;16.37;76.19
70009;BME280;59542;37.950;-122.338;2022-08-03T04:52:54;101401.72;;;16.48;76.05
70009;BME280;59542;37.950;-122.338;2022-08-03T04:55:31;101405.94;;;16.44;75.97
70009;BME280;59542;37.950;-122.338;2022-08-03T04:57:59;101413.13;;;16.50;75.51
70009;BME280;59542;37.950;-122.338;2022-08-03T05:00:26;101419.09;;;16.41;75.98
70009;BME280;59542;37.950;-122.338;2022-08-03T05:02:52;101419.31;;;16.39;76.30
70009;BME280;59542;37.950;-122.338;2022-08-03T05:05:19;101421.47;;;16.19;76.85
70009;BME280;59542;37.950;-122.338;2022-08-03T05:07:46;101420.78;;;16.23;76.74
70009;BME280;59542;37.950;-122.338;2022-08-03T05:10:12;101421.47;;;16.19;76.97
70009;BME280;59542;37.950;-122.338;2022-08-03T05:12:39;101422.38;;;16.13;77.44
70009;BME280;59542;37.950;-122.338;2022-08-03T05:15:06;101415.41;;;16.23;77.40
70009;BME280;59542;37.950;-122.338;2022-08-03T05:17:32;101402.72;;;16.24;77.41
70009;BME280;59542;37.950;-122.338;2022-08-03T05:19:59;101408.81;;;16.31;77.33
70009;BME280;59542;37.950;-122.338;2022-08-03T05:22:25;101419.09;;;16.10;78.49
70009;BME280;59542;37.950;-122.338;2022-08-03T05:24:52;101415.16;;;16.25;77.84
70009;BME280;59542;37.950;-122.338;2022-08-03T05:27:18;101426.09;;;16.30;78.03
70009;BME280;59542;37.950;-122.338;2022-08-03T05:29:45;101427.84;;;16.24;78.21
70009;BME280;59542;37.950;-122.338;2022-08-03T05:32:11;101426.22;;;16.35;77.81
70009;BME280;59542;37.950;-122.338;2022-08-03T05:34:37;101418.34;;;16.22;77.55
70009;BME280;59542;37.950;-122.338;2022-08-03T05:37:04;101413.06;;;16.27;77.22
70009;BME280;59542;37.950;-122.338;2022-08-03T05:39:32;101411.25;;;16.21;77.74
70009;BME280;59542;37.950;-122.338;2022-08-03T05:41:58;101412.22;;;16.26;77.51
70009;BME280;59542;37.950;-122.338;2022-08-03T05:44:25;101407.44;;;16.28;77.24
70009;BME280;59542;37.950;-122.338;2022-08-03T05:46:51;101408.31;;;16.10;77.54
70009;BME280;59542;37.950;-122.338;2022-08-03T05:49:18;101398.59;;;16.21;77.28
70009;BME280;59542;37.950;-122.338;2022-08-03T05:51:45;101402.28;;;16.08;78.12
70009;BME280;59542;37.950;-122.338;2022-08-03T05:54:11;101399.41;;;15.92;78.50
70009;BME280;59542;37.950;-122.338;2022-08-03T05:56:37;101399.16;;;15.93;78.71
70009;BME280;59542;37.950;-122.338;2022-08-03T05:59:05;101394.69;;;15.87;78.58
70009;BME280;59542;37.950;-122.338;2022-08-03T06:01:32;101398.47;;;15.68;79.23
70009;BME280;59542;37.950;-122.338;2022-08-03T06:03:58;101406.47;;;15.56;80.28
70009;BME280;59542;37.950;-122.338;2022-08-03T06:06:24;101413.13;;;15.53;80.30
70009;BME280;59542;37.950;-122.338;2022-08-03T06:08:50;101416.63;;;15.54;80.60
70009;BME280;59542;37.950;-122.338;2022-08-03T06:11:18;101420.16;;;15.54;80.59
70009;BME280;59542;37.950;-122.338;2022-08-03T06:13:44;101427.06;;;15.50;80.44
70009;BME280;59542;37.950;-122.338;2022-08-03T06:16:11;101421.44;;;15.52;80.27
70009;BME280;59542;37.950;-122.338;2022-08-03T06:18:37;101428.31;;;15.48;80.86
70009;BME280;59542;37.950;-122.338;2022-08-03T06:21:05;101429.97;;;15.30;81.40
70009;BME280;59542;37.950;-122.338;2022-08-03T06:23:31;101423.16;;;15.46;80.71
70009;BME280;59542;37.950;-122.338;2022-08-03T06:25:57;101421.75;;;15.44;80.53
70009;BME280;59542;37.950;-122.338;2022-08-03T06:28:23;101419.72;;;15.39;80.56
70009;BME280;59542;37.950;-122.338;2022-08-03T06:30:50;101413.19;;;15.47;80.03
70009;BME280;59542;37.950;-122.338;2022-08-03T06:33:16;101423.91;;;15.35;80.51
70009;BME280;59542;37.950;-122.338;2022-08-03T06:35:42;101424.50;;;15.37;80.88
70009;BME280;59542;37.950;-122.338;2022-08-03T06:38:08;101417.09;;;15.32;81.01
70009;BME280;59542;37.950;-122.338;2022-08-03T06:40:36;101416.41;;;15.37;80.71
70009;BME280;59542;37.950;-122.338;2022-08-03T06:43:06;101412.56;;;15.26;81.39
70009;BME280;59542;37.950;-122.338;2022-08-03T06:45:32;101418.94;;;15.14;81.79
70009;BME280;59542;37.950;-122.338;2022-08-03T06:48:06;101413.09;;;15.17;81.91
70009;BME280;59542;37.950;-122.338;2022-08-03T06:50:34;101423.66;;;14.93;82.88
70009;BME280;59542;37.950;-122.338;2022-08-03T06:53:02;101424.81;;;15.04;82.34
70009;BME280;59542;37.950;-122.338;2022-08-03T06:55:28;101413.03;;;14.98;82.49
70009;BME280;59542;37.950;-122.338;2022-08-03T06:57:55;101416.19;;;14.95;82.51
70009;BME280;59542;37.950;-122.338;2022-08-03T07:00:21;101414.25;;;15.02;82.68
70009;BME280;59542;37.950;-122.338;2022-08-03T07:02:48;101421.28;;;15.03;82.42
70009;BME280;59542;37.950;-122.338;2022-08-03T07:05:14;101421.09;;;15.05;82.22
70009;BME280;59542;37.950;-122.338;2022-08-03T07:07:41;101430.75;;;15.13;82.12
70009;BME280;59542;37.950;-122.338;2022-08-03T07:10:08;101431.81;;;15.12;81.89
70009;BME280;59542;37.950;-122.338;2022-08-03T07:12:39;101432.25;;;15.09;81.54
70009;BME280;59542;37.950;-122.338;2022-08-03T07:15:06;101438.97;;;14.99;82.11
70009;BME280;59542;37.950;-122.338;2022-08-03T07:17:34;101429.44;;;14.97;82.21
70009;BME280;59542;37.950;-122.338;2022-08-03T07:20:03;101432.59;;;14.94;82.25
70009;BME280;59542;37.950;-122.338;2022-08-03T07:22:30;101435.16;;;14.82;nan
70009;BME280;59542;37.950;-122.338;2022-08-03T07:24:57;101424.88;;;14.72;83.51
70009;BME280;59542;37.950;-122.338;2022-08-03T07:27:23;101429.16;;;14.80;83.43
70009;BME280;59542;37.950;-122.338;2022-08-03T07:29:51;101434.97;;;14.84;83.12
70009;BME280;59542;37.950;-122.338;2022-08-03T07:32:17;101429.28;;;14.92;82.30
70009;BME280;59542;37.950;-122.338;2022-08-03T07:34:43;101417.84;;;14.96;81.47
70009;BME280;59542;37.950;-122.338;2022-08-03T07:37:10;101417.09;;;14.89;81.98
70009;BME280;59542;37.950;-122.338;2022-08-03T07:39:36;101423.06;;;14.91;82.62
70009;BME280;59542;37.950;-122.338;2022-08-03T07:42:02;101422.25;;;14.91;82.65
70009;BME280;59542;37.950;-122.338;2022-08-03T07:44:28;101416.25;;;14.89;82.45
70009;BME280;59542;37.950;-122.338;2022-08-03T07:46:55;101422.19;;;14.97;82.40
70009;BME280;59542;37.950;-122.338;2022-08-03T07:49:22;101421.66;;;14.89;82.33
70009;BME280;59542;37.950;-122.338;2022-08-03T07:51:48;101412.44;;;14.96;81.88
70009;BME280;59542;37.950;-122.338;2022-08-03T07:54:34;101428.75;;;14.83;82.27
70009;BME280;59542;37.950;-122.338;2022-08-03T07:57:00;101429.13;;;14.87;82.20
70009;BME280;59542;37.950;-122.338;2022-08-03T07:59:26;101408.00;;;14.84;81.90
70009;BME280;59542;37.950;-122.338;2022-08-03T08:01:52;101422.91;;;14.86;82.26
70009;BME280;59542;37.950;-122.338;2022-08-03T08:04:19;101426.22;;;14.88;82.00
70009;BME280;59542;37.950;-122.338;2022-08-03T08:06:45;101416.75;;;14.79;82.28
70009;BME280;59542;37.950;-122.338;2022-08-03T08:09:11;101419.69;;;14.77;82.40
70009;BME280;59542;37.950;-122.338;2022-08-03T08:11:37;101407.97;;;14.59;83.70
70009;BME280;59542;37.950;-122.338;2022-08-03T08:14:03;101399.69;;;14.60;83.91
70009;BME280;59542;37.950;-122.338;2022-08-03T08:16:30;101410.44;;;14.67;83.72
70009;BME280;59542;37.950;-122.338;2022-08-03T08:18:56;101409.09;;;14.76;83.13
70009;BME280;59542;37.950;-122.338;2022-08-03T08:21:22;101404.00;;;14.68;83.86
70009;BME280;59542;37.950;-122.338;2022-08-03T08:23:48;101398.75;;;14.73;83.72
70009;BME280;59542;37.950;-122.338;2022-08-03T08:26:15;101401.06;;;14.69;84.10
70009;BME280;59542;37.950;-122.338;2022-08-03T08:28:41;101399.81;;;14.72;84.08
70009;BME280;59542;37.950;-122.338;2022-08-03T08:31:07;101404.09;;;14.79;83.62
70009;BME280;59542;37.950;-122.338;2022-08-03T08:33:33;101393.47;;;14.85;83.36
70009;BME280;59542;37.950;-122.338;2022-08-03T08:36:00;101400.13;;;14.82;83.34
70009;BME280;59542;37.950;-122.338;2022-08-03T08:38:27;101390.44;;;14.74;83.48
70009;BME280;59542;37.950;-122.338;2022-08-03T08:40:56;101388.00;;;14.73;83.44
70009;BME280;59542;37.950;-122.338;2022-08-03T08:43:22;101385.47;;;14.78;83.15
70009;BME280;59542;37.950;-122.338;2022-08-03T08:45:49;101386.81;;;14.87;82.90
70009;BME280;59542;37.950;-122.338;2022-08-03T08:48:19;101382.75;;;14.78;83.89
70009;BME280;59542;37.950;-122.338;2022-08-03T08:50:48;101393.09;;;14.81;83.69
70009;BME280;59542;37.950;-122.338;2022-08-03T08:53:17;101398.66;;;14.61;84.36
70009;BME280;59542;37.950;-122.338;2022-08-03T08:55:46;101410.06;;;14.82;83.90
70009;BME280;59542;37.950;-122.338;2022-08-03T08:58:13;101411.41;;;14.72;83.72
70009;BME280;59542;37.950;-122.338;2022-08-03T09:00:44;101405.81;;;14.74;83.76
70009;BME280;59542;37.950;-122.338;2022-08-03T09:03:13;101405.50;;;14.82;83.64
70009;BME280;59542;37.950;-122.338;2022-08-03T09:05:42;101405.56;;;14.75;84.01
70009;BME280;59542;37.950;-122.338;2022-08-03T09:08:09;101411.63;;;14.71;84.53
70009;BME280;59542;37.950;-122.338;2022-08-03T09:10:35;101397.22;;;14.84;83.78
70009;BME280;59542;37.950;-122.338;2022-08-03T09:13:01;101409.16;;;14.94;83.70
70009;BME280;59542;37.950;-122.338;2022-08-03T09:15:32;101405.31;;;14.84;83.78
70009;BME280;59542;37.950;-122.338;2022-08-03T09:18:02;101399.88;;;14.90;83.44
70009;BME280;59542;37.950;-122.338;2022-08-03T09:20:32;101396.72;;;14.93;83.45
70009;BME280;59542;37.950;-122.338;2022-08-03T09:23:00;101393.75;;;15.01;82.95
70009;BME280;59542;37.950;-122.338;2022-08-03T09:25:38;101393.00;;;14.94;83.01
70009;BME280;59542;37.950;-122.338;2022-08-03T09:28:12;101378.06;;;14.92;82.97
70009;BME280;59542;37.950;-122.338;2022-08-03T09:30:41;101381.06;;;14.84;83.54
70009;BME280;59542;37.950;-122.338;2022-08-03T09:33:10;101381.94;;;14.77;83.96
70009;BME280;59542;37.950;-122.338;2022-08-03T09:35:41;101386.81;;;14.62;84.24
70009;BME280;59542;37.950;-122.338;2022-08-03T09:38:10;101382.69;;;14.60;84.51
70009;BME280;59542;37.950;-122.338;2022-08-03T09:40:37;101376.56;;;14.46;85.39
70009;BME280;59542;37.950;-122.338;2022-08-03T09:43:04;101378.19;;;14.53;85.00
70009;BME280;59542;37.950;-122.338;2022-08-03T09:45:34;101369.22;;;14.60;84.95
70009;BME280;59542;37.950;-122.338;2022-08-03T09:53:21;101365.03;;;14.64;84.44
70009;BME280;59542;37.950;-122.338;2022-08-03T09:58:17;101362.59;;;14.62;84.39
70009;BME280;59542;37.950;-122.338;2022-08-03T10:00:58;101365.03;;;14.64;84.37
70009;BME280;59542;37.950;-122.338;2022-08-03T10:03:27;101373.41;;;14.56;84.23
70009;BME280;59542;37.950;-122.338;2022-08-03T10:05:54;101360.78;;;14.56;84.61
70009;BME280;59542;37.950;-122.338;2022-08-03T10:08:20;101361.41;;;14.51;84.49
70009;BME280;59542;37.950;-122.338;2022-08-03T10:10:49;101363.63;;;14.61;83.94
70009;BME280;59542;37.950;-122.338;2022-08-03T10:13:17;101365.69;;;14.59;83.84
70009;BME280;59542;37.950;-122.338;2022-08-03T10:15:45;101358.91;;;14.57;84.21
70009;BME280;59542;37.950;-122.338;2022-08-03T10:18:11;101360.72;;;14.63;83.87
70009;BME280;59542;37.950;-122.338;2022-08-03T10:21:06;101364.34;;;14.50;84.64
70009;BME280;59542;37.950;-122.338;2022-08-03T10:23:34;101368.41;;;14.59;84.66
70009;BME280;59542;37.950;-122.338;2022-08-03T10:26:02;101363.41;;;14.63;84.61
70009;BME280;59542;37.950;-122.338;2022-08-03T10:28:35;101368.66;;;14.76;84.05
70009;BME280;59542;37.950;-122.338;2022-08-03T10:31:04;101364.47;;;14.62;84.27
70009;BME280;59542;37.950;-122.338;2022-08-03T10:33:40;101370.03;;;14.60;84.17
70009;BME280;59542;37.950;-122.338;2022-08-03T10:36:08;101370.44;;;14.64;84.56
70009;BME280;59542;37.950;-122.338;2022-08-03T10:38:39;101378.47;;;14.70;84.21
70009;BME280;59542;37.950;-122.338;2022-08-03T10:41:12;101388.47;;;14.63;84.41
70009;BME280;59542;37.950;-122.338;2022-08-03T10:44:17;101378.09;;;14.67;84.77
70009;BME280;59542;37.950;-122.338;2022-08-03T10:46:44;101378.91;;;14.67;84.84
70009;BME280;59542;37.950;-122.338;2022-08-03T10:49:14;101377.53;;;14.83;83.74
70009;BME280;59542;37.950;-122.338;2022-08-03T10:51:43;101381.28;;;14.57;84.96
70009;BME280;59542;37.950;-122.338;2022-08-03T10:54:41;101362.19;;;14.59;84.75
70009;BME280;59542;37.950;-122.338;2022-08-03T11:00:18;101362.84;;;14.54;84.62
70009;BME280;59542;37.950;-122.338;2022-08-03T11:03:06;101341.50;;;14.52;84.66
70009;BME280;59542;37.950;-122.338;2022-08-03T11:05:41;101342.38;;;14.46;84.78
70009;BME280;59542;37.950;-122.338;2022-08-03T11:08:31;101346.91;;;14.52;85.13
70009;BME280;59542;37.950;-122.338;2022-08-03T11:11:01;101344.13;;;14.34;85.75
70009;BME280;59542;37.950;-122.338;2022-08-03T11:13:29;101342.25;;;14.35;85.80
70009;BME280;59542;37.950;-122.338;2022-08-03T11:16:00;101339.09;;;14.44;85.65
70009;BME280;59542;37.950;-122.338;2022-08-03T11:18:26;101335.31;;;14.52;85.41
70009;BME280;59542;37.950;-122.338;2022-08-03T11:20:55;101351.06;;;14.48;85.66
70009;BME280;59542;37.950;-122.338;2022-08-03T11:23:43;101350.34;;;14.60;85.09
70009;BME280;59542;37.950;-122.338;2022-08-03T11:26:17;101330.19;;;14.69;84.61
70009;BME280;59542;37.950;-122.338;2022-08-03T11:28:45;101328.66;;;14.55;85.25
70009;BME280;59542;37.950;-122.338;2022-08-03T11:34:08;101322.16;;;14.62;84.86
70009;BME280;59542;37.950;-122.338;2022-08-03T11:39:41;101319.72;;;14.61;85.07
70009;BME280;59542;37.950;-122.338;2022-08-03T11:44:57;101310.00;;;14.53;86.20
70009;BME280;59542;37.950;-122.338;2022-08-03T11:47:26;101316.94;;;14.67;85.44
70009;BME280;59542;37.950;-122.338;2022-08-03T11:49:57;101314.78;;;14.76;85.57
70009;BME280;59542;37.950;-122.338;2022-08-03T11:52:26;101321.38;;;14.80;85.34
70009;BME280;59542;37.950;-122.338;2022-08-03T11:54:58;101313.44;;;14.85;84.92
70009;BME280;59542;37.950;-122.338;2022-08-03T11:57:32;101321.94;;;14.89;84.56
70009;BME280;59542;37.950;-122.338;2022-08-03T11:59:59;101319.91;;;14.84;84.17
70009;BME280;59542;37.950;-122.338;2022-08-03T12:02:25;101313.59;;;14.72;84.92
70009;BME280;59542;37.950;-122.338;2022-08-03T12:05:00;101325.19;;;14.72;85.00
70009;BME280;59542;37.950;-122.338;2022-08-03T12:07:28;101324.03;;;14.62;85.45
70009;BME280;59542;37.950;-122.338;2022-08-03T12:10:13;101328.88;;;14.78;85.24
70009;BME280;59542;37.950;-122.338;2022-08-03T12:12:40;101328.47;;;14.74;85.09
70009;BME280;59542;37.950;-122.338;2022-08-03T12:15:08;101322.66;;;14.77;85.12
70009;BME280;59542;37.950;-122.338;2022-08-03T12:17:35;101332.63;;;14.77;85.45
70009;BME280;59542;37.950;-122.338;2022-08-03T12:20:04;101328.88;;;14.78;85.21
70009;BME280;59542;37.950;-122.338;2022-08-03T12:22:38;101342.53;;;14.76;85.34
70009;BME280;59542;37.950;-122.338;2022-08-03T12:25:08;101328.09;;;14.71;85.75
70009;BME280;59542;37.950;-122.338;2022-08-03T12:27:35;101322.81;;;14.58;85.75
70009;BME280;59542;37.950;-122.338;2022-08-03T12:30:02;101328.97;;;14.65;86.29
70009;BME280;59542;37.950;-122.338;2022-08-03T12:32:29;101316.28;;;14.72;85.63
70009;BME280;59542;37.950;-122.338;2022-08-03T12:34:57;101316.50;;;14.70;85.41
70009;BME280;59542;37.950;-122.338;2022-08-03T12:37:29;101329.38;;;14.68;85.61
70009;BME280;59542;37.950;-122.338;2022-08-03T12:39:57;101323.81;;;14.63;85.70
70009;BME280;59542;37.950;-122.338;2022-08-03T12:42:32;101311.16;;;14.64;85.60
70009;BME280;59542;37.950;-122.338;2022-08-03T12:44:59;101320.72;;;14.60;85.63
70009;BME280;59542;37.950;-122.338;2022-08-03T12:47:25;101319.47;;;14.62;85.73
70009;BME280;59542;37.950;-122.338;2022-08-03T12:49:52;101318.84;;;14.60;85.80
70009;BME280;59542;37.950;-122.338;2022-08-03T12:52:21;101307.41;;;14.65;85.48
70009;BME280;59542;37.950;-122.338;2022-08-03T12:54:58;101308.97;;;14.79;84.80
70009;BME280;59542;37.950;-122.338;2022-08-03T12:57:24;101304.31;;;14.86;84.25
70009;BME280;59542;37.950;-122.338;2022-08-03T12:59:51;101321.84;;;14.77;84.49
70009;BME280;59542;37.950;-122.338;2022-08-03T13:02:26;101326.06;;;14.66;85.18
70009;BME280;59542;37.950;-122.338;2022-08-03T13:04:53;101327.88;;;14.72;85.11
70009;BME280;59542;37.950;-122.338;2022-08-03T13:07:20;101325.19;;;14.72;84.71